createdAt,value
2023-03-23T15:59:35.334Z,98459.28
2023-03-23T16:02:03.657Z,98440.75
2023-03-23T16:04:33.317Z,98455.81
2023-03-23T16:07:02.254Z,98457.88
2023-03-23T16:09:31.815Z,98442.41
2023-03-23T16:11:59.970Z,98442.06
2023-03-23T16:14:28.157Z,98438.81
2023-03-23T16:16:56.294Z,98430.00
2023-03-23T16:19:24.766Z,98443.31
2023-03-23T16:21:53.013Z,98439.13
2023-03-23T16:24:21.158Z,98452.00
2023-03-23T16:26:50.776Z,98456.38
2023-03-23T16:29:37.055Z,98456.94
2023-03-23T16:32:07.888Z,98460.94
2023-03-23T16:34:37.203Z,98458.16
2023-03-23T16:37:07.094Z,98454.88
2023-03-23T16:39:35.276Z,98457.28
2023-03-23T16:42:05.094Z,98447.66
2023-03-23T16:44:33.205Z,98437.09
2023-03-23T16:47:01.477Z,98433.06
2023-03-23T16:49:29.582Z,98431.78
2023-03-23T16:51:58.582Z,98423.94
2023-03-23T16:54:26.692Z,98422.47
2023-03-23T16:56:55.137Z,98430.16
2023-03-23T16:59:24.882Z,98425.78
2023-03-23T17:01:53.041Z,98431.00
2023-03-23T17:04:21.242Z,98435.97
2023-03-23T17:06:51.844Z,98435.88
2023-03-23T17:09:20.071Z,98430.81
2023-03-23T17:11:48.225Z,98438.94
2023-03-23T17:14:16.459Z,98427.56
2023-03-23T17:16:45.974Z,98437.72
2023-03-23T17:19:15.466Z,98429.56
2023-03-23T17:21:43.584Z,98434.13
2023-03-23T17:24:11.757Z,98431.00
2023-03-23T17:26:40.255Z,98428.75
2023-03-23T17:29:08.413Z,98438.84
2023-03-23T17:31:36.700Z,98433.47
2023-03-23T17:34:06.341Z,98425.56
2023-03-23T17:36:34.621Z,98432.44
2023-03-23T17:39:02.818Z,98424.81
2023-03-23T17:41:30.995Z,98432.41
2023-03-23T17:43:59.581Z,98418.38
2023-03-23T17:46:27.817Z,98432.41
2023-03-23T17:48:56.149Z,98416.78
2023-03-23T17:51:26.004Z,98415.13
2023-03-23T17:53:54.247Z,98428.25
2023-03-23T17:56:22.437Z,98426.31
2023-03-23T17:58:50.710Z,98417.72
2023-03-23T18:01:18.892Z,98418.22
2023-03-23T18:03:47.500Z,98427.09
2023-03-23T18:06:15.944Z,98410.50
2023-03-23T18:08:45.580Z,98411.59
2023-03-23T18:11:13.906Z,98398.84
2023-03-23T18:13:42.138Z,98407.28
2023-03-23T18:16:11.393Z,98415.19
2023-03-23T18:18:39.469Z,98404.84
2023-03-23T18:21:11.081Z,98404.63
2023-03-23T18:23:48.996Z,98396.03
2023-03-23T18:26:26.603Z,98394.19
2023-03-23T18:28:54.827Z,98402.25
2023-03-23T18:31:23.748Z,98404.47
2023-03-23T18:33:55.004Z,98405.88
2023-03-23T18:36:25.025Z,98405.31
2023-03-23T18:38:56.524Z,98410.00
2023-03-23T18:41:26.398Z,98411.19
2023-03-23T18:43:56.260Z,98400.31
2023-03-23T18:46:25.747Z,98411.91
2023-03-23T18:48:54.017Z,98402.34
2023-03-23T18:51:22.418Z,98404.09
2023-03-23T18:53:50.612Z,98386.09
2023-03-23T18:56:19.551Z,98395.59
2023-03-23T18:58:49.111Z,98402.38
2023-03-23T19:01:18.482Z,98406.53
2023-03-23T19:03:47.431Z,98413.84
2023-03-23T19:06:19.547Z,98411.81
2023-03-23T19:08:48.366Z,98405.00
2023-03-23T19:11:17.668Z,98416.94
2023-03-23T19:13:57.983Z,98415.66
2023-03-23T19:16:28.375Z,98422.31
2023-03-23T19:18:56.535Z,98408.47
2023-03-23T19:21:25.787Z,98422.22
2023-03-23T19:23:54.493Z,98419.69
2023-03-23T19:26:25.594Z,98421.97
2023-03-23T19:29:24.581Z,98423.03
2023-03-23T19:31:45.724Z,98427.25
2023-03-23T19:34:15.581Z,98438.41
2023-03-23T19:36:53.234Z,98440.78
2023-03-23T19:39:23.277Z,98421.97
2023-03-23T19:41:52.420Z,98423.03
2023-03-23T19:44:20.577Z,98416.69
2023-03-23T19:46:50.199Z,98420.13
2023-03-23T19:49:18.565Z,98419.81
2023-03-23T19:51:46.754Z,98422.00
2023-03-23T19:54:15.381Z,98409.28
2023-03-23T19:56:44.276Z,98429.13
2023-03-23T19:59:16.327Z,98424.19
2023-03-23T20:01:45.461Z,98451.13
2023-03-23T20:04:16.198Z,98447.69
2023-03-23T20:06:45.896Z,98451.47
2023-03-23T20:09:14.529Z,98444.53
2023-03-23T20:11:43.243Z,98456.41
2023-03-23T20:14:11.840Z,98456.09
2023-03-23T20:16:40.052Z,98464.88
2023-03-23T20:19:08.753Z,98458.31
2023-03-23T20:24:07.592Z,98460.13
2023-03-23T20:26:38.584Z,98466.63
2023-03-23T20:29:08.607Z,98456.75
2023-03-23T20:31:38.752Z,98451.72
2023-03-23T20:34:08.933Z,98451.03
2023-03-23T20:36:40.407Z,98449.91
2023-03-23T20:39:12.338Z,98451.25
2023-03-23T20:41:41.199Z,98445.91
2023-03-23T20:44:14.290Z,98450.44
2023-03-23T20:46:43.177Z,98461.59
2023-03-23T20:49:11.338Z,98461.22
2023-03-23T20:51:41.461Z,98453.00
2023-03-23T20:54:10.274Z,98459.78
2023-03-23T20:56:40.516Z,98465.28
2023-03-23T20:59:08.857Z,98461.91
2023-03-23T21:01:37.165Z,98450.41
2023-03-23T21:04:05.438Z,98466.66
2023-03-23T21:06:34.104Z,98462.19
2023-03-23T21:09:04.297Z,98473.53
2023-03-23T21:11:33.273Z,98478.63
2023-03-23T21:14:01.502Z,98492.22
2023-03-23T21:16:29.669Z,98500.31
2023-03-23T21:18:58.201Z,98492.81
2023-03-23T21:21:28.373Z,98481.69
2023-03-23T21:23:57.614Z,98493.25
2023-03-23T21:26:29.137Z,98491.84
2023-03-23T21:29:00.890Z,98478.59
2023-03-23T21:31:31.972Z,98487.94
2023-03-23T21:34:00.503Z,98477.00
2023-03-23T21:36:29.141Z,98478.59
2023-03-23T21:38:57.990Z,98497.22
2023-03-23T21:41:30.058Z,98477.56
2023-03-23T21:44:11.220Z,98482.03
2023-03-23T21:46:40.539Z,98481.00
2023-03-23T21:49:10.767Z,98476.63
2023-03-23T21:51:39.390Z,98485.16
2023-03-23T21:54:08.209Z,98477.53
2023-03-23T21:56:38.266Z,98477.13
2023-03-23T21:59:07.776Z,98495.66
2023-03-23T22:01:37.554Z,98484.19
2023-03-23T22:04:06.970Z,98493.13
2023-03-23T22:06:35.453Z,98500.63
2023-03-23T22:09:05.494Z,98487.09
2023-03-23T22:11:34.167Z,98480.44
2023-03-23T22:14:04.964Z,98495.56
2023-03-23T22:16:34.035Z,98497.03
2023-03-23T22:19:03.492Z,98499.84
2023-03-23T22:21:31.674Z,98493.59
2023-03-23T22:24:01.517Z,98502.13
2023-03-23T22:26:30.455Z,98507.16
2023-03-23T22:28:59.918Z,98515.03
2023-03-23T22:31:32.617Z,98504.16
2023-03-23T22:34:01.810Z,98522.94
2023-03-23T22:36:31.276Z,98507.78
2023-03-23T22:38:59.551Z,98512.09
2023-03-23T22:41:29.558Z,98527.25
2023-03-23T22:43:58.055Z,98540.19
2023-03-23T22:46:26.468Z,98546.81
2023-03-23T22:48:56.250Z,98545.22
2023-03-23T22:51:24.812Z,98552.31
2023-03-23T22:53:53.310Z,98545.81
2023-03-23T22:56:21.638Z,98557.16
2023-03-23T22:58:50.092Z,98562.00
2023-03-23T23:01:19.905Z,98563.00
2023-03-23T23:03:48.530Z,98571.72
2023-03-23T23:06:19.538Z,98569.91
2023-03-23T23:08:48.986Z,98565.84
2023-03-23T23:11:19.174Z,98567.72
2023-03-23T23:13:48.406Z,98572.53
2023-03-23T23:16:18.371Z,98583.44
2023-03-23T23:18:48.672Z,98586.06
2023-03-23T23:21:19.749Z,98575.97
2023-03-23T23:23:48.291Z,98582.25
2023-03-23T23:26:17.696Z,98585.69
2023-03-23T23:28:46.577Z,98572.38
2023-03-23T23:31:22.662Z,98582.94
2023-03-23T23:33:51.483Z,98581.72
2023-03-23T23:36:21.307Z,98584.53
2023-03-23T23:38:50.043Z,98596.88
2023-03-23T23:41:18.584Z,98589.00
2023-03-23T23:43:46.905Z,98595.03
2023-03-23T23:46:15.185Z,98582.94
2023-03-23T23:48:45.017Z,98595.09
2023-03-23T23:51:15.407Z,98603.97
2023-03-23T23:53:46.315Z,98602.34
2023-03-23T23:56:15.430Z,98614.06
2023-03-23T23:58:43.658Z,98614.47
